createdAt,value
2017-01-16T00:00:32.160Z,0
2017-01-16T00:01:12.815Z,0
2017-01-16T00:01:53.468Z,0
2017-01-16T00:02:34.109Z,0
2017-01-16T00:03:14.762Z,0
2017-01-16T00:03:55.425Z,0
2017-01-16T00:04:36.079Z,0
2017-01-16T00:05:16.754Z,0
2017-01-16T00:05:57.371Z,0
2017-01-16T00:06:38.027Z,0
2017-01-16T00:07:18.696Z,0
2017-01-16T00:07:59.334Z,0
2017-01-16T00:08:40.002Z,0
2017-01-16T00:09:20.651Z,0
2017-01-16T00:10:01.306Z,0
2017-01-16T00:10:41.944Z,0
2017-01-16T00:11:22.611Z,0
2017-01-16T00:12:03.259Z,0
2017-01-16T00:12:43.908Z,0
2017-01-16T00:13:24.564Z,0
2017-01-16T00:14:05.118Z,0
2017-01-16T00:14:45.719Z,0
2017-01-16T00:15:26.306Z,0
2017-01-16T00:16:06.967Z,0
2017-01-16T00:16:47.529Z,0
2017-01-16T00:17:28.132Z,0
2017-01-16T00:18:08.713Z,0
2017-01-16T00:18:49.389Z,0
2017-01-16T00:19:30.032Z,0
2017-01-16T00:20:10.674Z,0
2017-01-16T00:20:52.353Z,0
2017-01-16T00:21:33.012Z,0
2017-01-16T00:22:13.684Z,0
2017-01-16T00:22:54.317Z,0
2017-01-16T00:23:34.971Z,0
2017-01-16T00:24:15.625Z,0
2017-01-16T00:24:56.278Z,0
2017-01-16T00:25:36.923Z,0
2017-01-16T00:26:17.590Z,0
2017-01-16T00:26:58.237Z,0
2017-01-16T00:27:38.885Z,0
2017-01-16T00:28:19.534Z,0
2017-01-16T00:29:00.193Z,0
2017-01-16T00:29:40.849Z,0
2017-01-16T00:30:21.498Z,0
2017-01-16T00:31:02.154Z,0
2017-01-16T00:31:43.832Z,0
2017-01-16T00:32:24.390Z,0
2017-01-16T00:33:05.027Z,0
2017-01-16T00:33:45.673Z,0
2017-01-16T00:34:26.349Z,0
2017-01-16T00:35:06.984Z,0
2017-01-16T00:35:47.628Z,0
2017-01-16T00:36:28.294Z,0
2017-01-16T00:37:08.938Z,0
2017-01-16T00:37:49.583Z,0
2017-01-16T00:38:30.325Z,0
2017-01-16T00:39:11.016Z,0
2017-01-16T00:39:51.741Z,0
2017-01-16T00:40:32.511Z,0
2017-01-16T00:41:13.434Z,0
2017-01-16T00:41:54.036Z,0
2017-01-16T00:42:34.613Z,0
2017-01-16T00:43:15.389Z,0
2017-01-16T00:43:56.385Z,0
2017-01-16T00:44:37.050Z,0
2017-01-16T00:45:17.708Z,0
2017-01-16T00:45:58.356Z,0
2017-01-16T00:46:39.171Z,0
2017-01-16T00:47:19.986Z,0
2017-01-16T00:48:00.625Z,0
2017-01-16T00:48:41.380Z,0
2017-01-16T00:49:22.034Z,0
2017-01-16T00:50:02.807Z,0
2017-01-16T00:50:43.450Z,0
2017-01-16T00:51:24.088Z,0
2017-01-16T00:52:05.103Z,0
2017-01-16T00:52:46.025Z,0
2017-01-16T00:53:26.666Z,0
2017-01-16T00:54:07.258Z,0
2017-01-16T00:54:47.973Z,0
2017-01-16T00:55:28.827Z,0
2017-01-16T00:56:09.605Z,0
2017-01-16T00:56:50.544Z,0
2017-01-16T00:57:31.195Z,0
2017-01-16T00:58:11.771Z,0
2017-01-16T00:58:52.402Z,0
2017-01-16T00:59:33.053Z,0
2017-01-16T01:00:13.617Z,0
2017-01-16T01:00:54.261Z,0
2017-01-16T01:01:34.910Z,0
2017-01-16T01:02:15.579Z,0
2017-01-16T01:02:56.441Z,0
2017-01-16T01:03:37.161Z,0
2017-01-16T01:04:17.828Z,0
2017-01-16T01:04:58.482Z,0
2017-01-16T01:05:39.236Z,0
2017-01-16T01:06:19.940Z,0
2017-01-16T01:07:00.615Z,0
2017-01-16T01:07:41.400Z,0
2017-01-16T01:08:22.057Z,0
2017-01-16T01:09:02.714Z,0
2017-01-16T01:09:43.356Z,0
2017-01-16T01:10:24.021Z,0
2017-01-16T01:11:04.670Z,0
2017-01-16T01:11:45.321Z,0
2017-01-16T01:12:25.971Z,0
2017-01-16T01:13:06.621Z,0
2017-01-16T01:13:47.279Z,0
2017-01-16T01:14:27.929Z,0
2017-01-16T01:15:08.582Z,0
2017-01-16T01:15:49.239Z,0
2017-01-16T01:16:29.891Z,0
2017-01-16T01:17:10.540Z,0
2017-01-16T01:17:51.193Z,0
2017-01-16T01:18:31.847Z,0
2017-01-16T01:19:12.496Z,0
2017-01-16T01:19:53.160Z,0
2017-01-16T01:20:33.869Z,0
2017-01-16T01:21:14.461Z,0
2017-01-16T01:21:55.213Z,0
2017-01-16T01:22:36.792Z,0
2017-01-16T01:23:17.450Z,0
2017-01-16T01:23:58.054Z,0
2017-01-16T01:24:38.700Z,0
2017-01-16T01:25:19.303Z,0
2017-01-16T01:25:59.871Z,0
2017-01-16T01:26:40.507Z,0
2017-01-16T01:27:21.151Z,0
2017-01-16T01:28:01.728Z,0
2017-01-16T01:28:42.352Z,0
2017-01-16T01:29:23.019Z,0
2017-01-16T01:30:03.660Z,0
2017-01-16T01:30:48.276Z,0
2017-01-16T01:31:35.726Z,0
2017-01-16T01:32:16.375Z,0
2017-01-16T01:32:57.033Z,0
2017-01-16T01:33:37.688Z,0
2017-01-16T01:34:18.339Z,0
2017-01-16T01:34:58.972Z,0
2017-01-16T01:35:39.645Z,0
2017-01-16T01:36:20.290Z,0
2017-01-16T01:37:00.952Z,0
2017-01-16T01:37:41.597Z,0
2017-01-16T01:38:22.352Z,0
2017-01-16T01:39:03.011Z,0
2017-01-16T01:39:43.666Z,0
2017-01-16T01:40:24.326Z,0
2017-01-16T01:41:04.967Z,0
2017-01-16T01:41:45.624Z,0
2017-01-16T01:42:26.278Z,0
2017-01-16T01:43:06.929Z,0
2017-01-16T01:43:47.572Z,0
2017-01-16T01:44:28.225Z,0
2017-01-16T01:45:08.888Z,0
2017-01-16T01:45:49.540Z,0
2017-01-16T01:46:30.184Z,0
2017-01-16T01:47:10.845Z,0
2017-01-16T01:47:51.559Z,0
2017-01-16T01:48:32.148Z,0
2017-01-16T01:49:12.728Z,0
2017-01-16T01:49:53.417Z,0
2017-01-16T01:50:34.008Z,0
2017-01-16T01:51:14.664Z,0
2017-01-16T01:51:55.266Z,0
2017-01-16T01:52:35.932Z,0
2017-01-16T01:53:16.611Z,0
2017-01-16T01:53:57.271Z,0
2017-01-16T01:54:37.913Z,0
2017-01-16T01:55:18.571Z,0
2017-01-16T01:55:59.231Z,0
2017-01-16T01:56:39.882Z,0
2017-01-16T01:57:20.526Z,0
2017-01-16T01:58:01.189Z,0
2017-01-16T01:58:41.837Z,0
2017-01-16T01:59:22.490Z,0
2017-01-16T02:00:03.147Z,0
2017-01-16T02:00:43.800Z,0
2017-01-16T02:01:24.454Z,0
2017-01-16T02:02:05.202Z,0
2017-01-16T02:02:46.041Z,0
2017-01-16T02:03:26.872Z,0
2017-01-16T02:04:07.537Z,0
2017-01-16T02:04:48.496Z,0
2017-01-16T02:05:30.213Z,0
2017-01-16T02:06:10.868Z,0
2017-01-16T02:06:51.522Z,0
2017-01-16T02:07:32.440Z,0
2017-01-16T02:08:13.457Z,0
2017-01-16T02:08:54.333Z,0
2017-01-16T02:09:35.145Z,0
2017-01-16T02:10:15.863Z,0
2017-01-16T02:10:56.565Z,0
2017-01-16T02:11:37.225Z,0
2017-01-16T02:12:17.900Z,0
2017-01-16T02:12:58.515Z,0
2017-01-16T02:13:39.171Z,0
2017-01-16T02:14:19.831Z,0
2017-01-16T02:15:00.486Z,0
2017-01-16T02:15:41.135Z,0
2017-01-16T02:16:21.793Z,0
2017-01-16T02:17:02.443Z,0
2017-01-16T02:17:43.105Z,0
2017-01-16T02:18:23.750Z,0
2017-01-16T02:19:04.394Z,0
2017-01-16T02:19:45.047Z,0
2017-01-16T02:20:25.695Z,0
2017-01-16T02:21:06.357Z,0
2017-01-16T02:21:47.009Z,0
2017-01-16T02:22:27.661Z,0
2017-01-16T02:23:08.317Z,0
2017-01-16T02:23:48.972Z,0
2017-01-16T02:24:29.625Z,0
2017-01-16T02:25:10.272Z,0
2017-01-16T02:25:50.948Z,0
2017-01-16T02:26:31.579Z,0
2017-01-16T02:27:12.223Z,0
2017-01-16T02:27:52.909Z,0
2017-01-16T02:28:33.541Z,0
2017-01-16T02:29:14.107Z,0
2017-01-16T02:29:54.689Z,0
2017-01-16T02:30:35.295Z,0
2017-01-16T02:31:15.938Z,0
2017-01-16T02:31:56.525Z,0
2017-01-16T02:32:37.108Z,0
2017-01-16T02:33:17.701Z,0
2017-01-16T02:33:58.354Z,0
2017-01-16T02:34:38.927Z,0
2017-01-16T02:35:19.507Z,0
2017-01-16T02:36:00.111Z,0
2017-01-16T02:36:40.757Z,0
2017-01-16T02:37:21.319Z,0
2017-01-16T02:38:01.924Z,0
2017-01-16T02:38:42.512Z,0
2017-01-16T02:39:23.164Z,0
2017-01-16T02:40:03.725Z,0
2017-01-16T02:40:44.370Z,0
2017-01-16T02:41:25.023Z,0
2017-01-16T02:42:05.605Z,0
2017-01-16T02:42:46.233Z,0
2017-01-16T02:43:26.879Z,0
2017-01-16T02:44:07.464Z,0
2017-01-16T02:44:48.079Z,0
2017-01-16T02:45:28.730Z,0
2017-01-16T02:46:09.287Z,0
2017-01-16T02:46:49.883Z,0
2017-01-16T02:47:30.486Z,0
2017-01-16T02:48:11.143Z,0
2017-01-16T02:48:51.692Z,0
2017-01-16T02:49:32.259Z,0
2017-01-16T02:50:12.852Z,0
2017-01-16T02:50:53.509Z,0
2017-01-16T02:51:34.223Z,0
2017-01-16T02:52:15.302Z,0
2017-01-16T02:52:56.242Z,0
2017-01-16T02:53:36.995Z,0
2017-01-16T02:54:17.592Z,0
2017-01-16T02:54:58.177Z,0
2017-01-16T02:55:38.834Z,0
2017-01-16T02:56:19.391Z,0
2017-01-16T02:56:59.982Z,0
2017-01-16T02:57:40.592Z,0
2017-01-16T02:58:21.244Z,0
2017-01-16T02:59:01.809Z,0
2017-01-16T02:59:42.510Z,0
2017-01-16T03:00:23.097Z,0
2017-01-16T03:01:03.665Z,0
2017-01-16T03:01:44.302Z,0
2017-01-16T03:02:24.955Z,0
2017-01-16T03:03:05.544Z,0
2017-01-16T03:03:46.155Z,0
2017-01-16T03:04:26.813Z,0
2017-01-16T03:05:07.359Z,0
2017-01-16T03:05:48.015Z,0
2017-01-16T03:06:28.666Z,0
2017-01-16T03:07:09.232Z,0
2017-01-16T03:07:49.871Z,0
2017-01-16T03:08:30.521Z,0
2017-01-16T03:09:11.091Z,0
2017-01-16T03:09:51.724Z,0
2017-01-16T03:10:32.381Z,0
2017-01-16T03:11:12.964Z,0
2017-01-16T03:11:53.581Z,0
2017-01-16T03:12:34.237Z,0
2017-01-16T03:13:14.832Z,0
2017-01-16T03:13:55.454Z,0
2017-01-16T03:14:36.094Z,0
2017-01-16T03:15:16.684Z,0
2017-01-16T03:15:58.277Z,0
2017-01-16T03:16:38.892Z,0
2017-01-16T03:17:19.549Z,0
2017-01-16T03:18:00.118Z,0
2017-01-16T03:18:40.777Z,0
2017-01-16T03:19:21.382Z,0
2017-01-16T03:20:02.039Z,0
2017-01-16T03:20:42.601Z,0
2017-01-16T03:21:23.211Z,0
2017-01-16T03:22:03.905Z,0
2017-01-16T03:22:44.544Z,0
2017-01-16T03:23:25.154Z,0
2017-01-16T03:24:05.801Z,0
2017-01-16T03:24:46.405Z,0
2017-01-16T03:25:27.047Z,0
2017-01-16T03:26:07.598Z,0
2017-01-16T03:26:48.205Z,0
2017-01-16T03:27:28.821Z,0
2017-01-16T03:28:09.479Z,0
2017-01-16T03:28:50.072Z,0
2017-01-16T03:29:30.769Z,0
2017-01-16T03:30:11.433Z,0
2017-01-16T03:30:52.083Z,0
2017-01-16T03:31:32.722Z,0
2017-01-16T03:32:13.377Z,0
2017-01-16T03:32:54.031Z,0
2017-01-16T03:33:34.681Z,0
2017-01-16T03:34:15.230Z,0
2017-01-16T03:34:55.828Z,0
2017-01-16T03:35:36.437Z,0
2017-01-16T03:36:17.089Z,0
2017-01-16T03:36:57.669Z,0
2017-01-16T03:37:38.245Z,0
2017-01-16T03:38:18.843Z,0
2017-01-16T03:38:59.510Z,0
2017-01-16T03:39:40.160Z,0
2017-01-16T03:40:20.813Z,0
2017-01-16T03:41:01.466Z,0
2017-01-16T03:41:42.219Z,0
2017-01-16T03:42:22.859Z,0
2017-01-16T03:43:03.520Z,0
2017-01-16T03:43:44.168Z,0
2017-01-16T03:44:24.821Z,0
2017-01-16T03:45:05.480Z,0
2017-01-16T03:45:46.124Z,0
2017-01-16T03:46:26.791Z,0
2017-01-16T03:47:07.444Z,0
2017-01-16T03:47:48.099Z,0
2017-01-16T03:48:28.743Z,0
2017-01-16T03:49:09.400Z,0
2017-01-16T03:49:50.048Z,0
2017-01-16T03:50:30.699Z,0
2017-01-16T03:51:11.353Z,0
2017-01-16T03:51:52.006Z,0
2017-01-16T03:52:32.660Z,0
2017-01-16T03:53:13.310Z,0
2017-01-16T03:53:53.961Z,0
2017-01-16T03:54:34.618Z,0
2017-01-16T03:55:15.277Z,0
2017-01-16T03:55:55.926Z,0
2017-01-16T03:56:36.576Z,0
2017-01-16T03:57:17.230Z,0
2017-01-16T03:57:57.889Z,0
2017-01-16T03:58:38.535Z,0
2017-01-16T03:59:19.102Z,0
2017-01-16T03:59:59.700Z,0
2017-01-16T04:00:40.300Z,0
2017-01-16T04:01:20.948Z,0
2017-01-16T04:02:01.529Z,0
2017-01-16T04:02:42.209Z,0
2017-01-16T04:03:22.797Z,0
2017-01-16T04:04:03.457Z,0
2017-01-16T04:04:44.110Z,0
2017-01-16T04:05:24.762Z,0
2017-01-16T04:06:05.417Z,0
2017-01-16T04:06:46.055Z,0
2017-01-16T04:07:26.722Z,0
2017-01-16T04:08:07.369Z,0
2017-01-16T04:08:47.985Z,0
2017-01-16T04:09:29.664Z,0
2017-01-16T04:10:11.338Z,0
2017-01-16T04:10:51.993Z,0
2017-01-16T04:11:32.645Z,0
2017-01-16T04:12:13.301Z,0
2017-01-16T04:12:53.952Z,0
2017-01-16T04:13:34.605Z,0
2017-01-16T04:14:15.153Z,0
2017-01-16T04:14:55.808Z,0
2017-01-16T04:15:36.459Z,0
2017-01-16T04:16:17.025Z,0
2017-01-16T04:16:57.657Z,0
2017-01-16T04:17:38.317Z,0
2017-01-16T04:18:18.864Z,0
2017-01-16T04:18:59.519Z,0
2017-01-16T04:19:40.174Z,0
2017-01-16T04:20:20.824Z,0
2017-01-16T04:21:01.476Z,0
2017-01-16T04:21:42.132Z,0
2017-01-16T04:22:22.787Z,0
2017-01-16T04:23:03.445Z,0
2017-01-16T04:23:44.093Z,0
2017-01-16T04:24:24.741Z,0
2017-01-16T04:25:05.394Z,0
2017-01-16T04:25:46.061Z,0
2017-01-16T04:26:26.701Z,0
2017-01-16T04:27:07.354Z,0
2017-01-16T04:27:48.009Z,0
2017-01-16T04:28:28.673Z,0
2017-01-16T04:29:09.317Z,0
2017-01-16T04:29:49.965Z,0
2017-01-16T04:30:30.617Z,0
2017-01-16T04:31:11.274Z,0
2017-01-16T04:31:51.926Z,0
2017-01-16T04:32:32.481Z,0
2017-01-16T04:33:13.126Z,0
2017-01-16T04:33:53.787Z,0
2017-01-16T04:34:34.361Z,0
2017-01-16T04:35:14.985Z,0
2017-01-16T04:35:55.579Z,0
2017-01-16T04:36:36.260Z,0
2017-01-16T04:37:16.840Z,0
2017-01-16T04:37:57.493Z,0
2017-01-16T04:38:38.074Z,0
2017-01-16T04:39:18.660Z,0
2017-01-16T04:39:59.245Z,0
2017-01-16T04:40:39.900Z,0
2017-01-16T04:41:20.557Z,0
2017-01-16T04:42:01.204Z,0
2017-01-16T04:42:41.851Z,0
2017-01-16T04:43:22.515Z,0
2017-01-16T04:44:03.162Z,0
2017-01-16T04:44:43.817Z,0
2017-01-16T04:45:24.395Z,0
2017-01-16T04:46:04.972Z,0
2017-01-16T04:46:45.586Z,0
2017-01-16T04:47:26.229Z,0
2017-01-16T04:48:06.802Z,0
2017-01-16T04:48:47.392Z,0
2017-01-16T04:49:27.977Z,0
2017-01-16T04:50:08.639Z,0
2017-01-16T04:50:49.288Z,0
2017-01-16T04:51:29.933Z,0
2017-01-16T04:52:10.597Z,0
2017-01-16T04:52:51.248Z,0
2017-01-16T04:53:31.895Z,0
2017-01-16T04:54:12.554Z,0
2017-01-16T04:54:53.112Z,0
2017-01-16T04:55:33.704Z,0
2017-01-16T04:56:14.312Z,0
2017-01-16T04:56:54.969Z,0
2017-01-16T04:57:35.524Z,0
2017-01-16T04:58:16.121Z,0
2017-01-16T04:58:56.718Z,0
2017-01-16T04:59:37.367Z,0
2017-01-16T05:00:17.975Z,0
2017-01-16T05:00:58.639Z,0
2017-01-16T05:01:39.218Z,0
2017-01-16T05:02:19.875Z,0
2017-01-16T05:03:00.457Z,0
2017-01-16T05:03:41.028Z,0
2017-01-16T05:04:21.631Z,0
2017-01-16T05:05:02.283Z,0
2017-01-16T05:05:42.929Z,0
2017-01-16T05:06:23.586Z,0
2017-01-16T05:07:04.234Z,0
2017-01-16T05:07:44.901Z,0
2017-01-16T05:08:26.563Z,0
2017-01-16T05:09:07.225Z,0
2017-01-16T05:09:47.871Z,0
2017-01-16T05:10:28.521Z,0
2017-01-16T05:11:09.174Z,0
2017-01-16T05:11:49.830Z,0
2017-01-16T05:12:30.501Z,0
2017-01-16T05:13:11.134Z,0
2017-01-16T05:13:51.808Z,0
2017-01-16T05:14:32.440Z,0
2017-01-16T05:15:13.112Z,0
2017-01-16T05:15:53.755Z,0
2017-01-16T05:16:34.411Z,0
2017-01-16T05:17:15.067Z,4
2017-01-16T05:17:55.725Z,0
2017-01-16T05:18:36.364Z,0
2017-01-16T05:19:17.022Z,0
2017-01-16T05:19:57.604Z,0
2017-01-16T05:20:38.190Z,0
2017-01-16T05:21:18.784Z,0
2017-01-16T05:21:59.444Z,0
2017-01-16T05:22:40.003Z,0
2017-01-16T05:23:20.691Z,0
2017-01-16T05:24:01.272Z,0
2017-01-16T05:24:41.940Z,0
2017-01-16T05:25:22.590Z,0
2017-01-16T05:26:03.249Z,0
2017-01-16T05:26:43.896Z,0
2017-01-16T05:27:24.546Z,0
2017-01-16T05:28:05.208Z,0
2017-01-16T05:28:45.869Z,0
2017-01-16T05:29:26.514Z,0
2017-01-16T05:30:07.161Z,0
2017-01-16T05:30:47.815Z,0
2017-01-16T05:31:28.472Z,0
2017-01-16T05:32:09.124Z,0
2017-01-16T05:32:49.773Z,0
2017-01-16T05:33:30.431Z,0
2017-01-16T05:34:11.078Z,0
2017-01-16T05:34:51.652Z,0
2017-01-16T05:35:32.310Z,0
2017-01-16T05:36:12.940Z,0
2017-01-16T05:36:53.591Z,0
2017-01-16T05:37:34.173Z,0
2017-01-16T05:38:14.865Z,0
2017-01-16T05:38:55.460Z,0
2017-01-16T05:39:36.091Z,0
2017-01-16T05:40:16.738Z,0
2017-01-16T05:40:57.398Z,0
2017-01-16T05:41:38.059Z,0
2017-01-16T05:42:19.646Z,0
2017-01-16T05:43:00.286Z,0
2017-01-16T05:43:40.933Z,0
2017-01-16T05:44:21.590Z,0
2017-01-16T05:45:02.184Z,0
2017-01-16T05:45:42.788Z,0
2017-01-16T05:46:24.478Z,0
2017-01-16T05:47:05.122Z,0
2017-01-16T05:47:46.694Z,0
2017-01-16T05:48:27.351Z,0
2017-01-16T05:49:08.006Z,0
2017-01-16T05:49:48.566Z,0
2017-01-16T05:50:29.207Z,0
2017-01-16T05:51:09.854Z,0
2017-01-16T05:51:50.508Z,0
2017-01-16T05:52:31.064Z,0
2017-01-16T05:53:12.660Z,0
2017-01-16T05:53:53.241Z,0
2017-01-16T05:54:34.821Z,0
2017-01-16T05:55:20.385Z,0
2017-01-16T05:56:01.033Z,0
2017-01-16T05:56:41.687Z,0
2017-01-16T05:57:22.341Z,0
2017-01-16T05:58:03.008Z,0
2017-01-16T05:58:43.640Z,0
2017-01-16T05:59:24.312Z,0
2017-01-16T06:00:16.837Z,0
2017-01-16T06:00:57.481Z,0
2017-01-16T06:01:38.139Z,0
2017-01-16T06:02:18.789Z,0
2017-01-16T06:03:00.465Z,0
2017-01-16T06:03:46.857Z,0
2017-01-16T06:04:27.435Z,0
2017-01-16T06:05:10.109Z,0
2017-01-16T06:05:50.752Z,0
2017-01-16T06:06:31.339Z,0
2017-01-16T06:07:11.959Z,0
2017-01-16T06:07:53.639Z,0
2017-01-16T06:08:34.272Z,0
2017-01-16T06:09:14.854Z,0
2017-01-16T06:09:56.533Z,0
2017-01-16T06:10:37.099Z,0
2017-01-16T06:11:18.696Z,0
2017-01-16T06:12:00.328Z,0
2017-01-16T06:12:40.983Z,0
2017-01-16T06:13:21.528Z,0
2017-01-16T06:14:02.147Z,0
2017-01-16T06:14:43.754Z,0
2017-01-16T06:15:24.415Z,0
2017-01-16T06:16:04.981Z,0
2017-01-16T06:16:45.602Z,0
2017-01-16T06:17:26.261Z,0
2017-01-16T06:18:06.841Z,0
2017-01-16T06:18:47.498Z,0
2017-01-16T06:19:28.129Z,0
2017-01-16T06:20:08.692Z,0
2017-01-16T06:20:51.336Z,0
2017-01-16T06:21:31.920Z,0
2017-01-16T06:22:19.336Z,0
2017-01-16T06:22:59.906Z,0
2017-01-16T06:23:40.511Z,0
2017-01-16T06:24:21.085Z,0
2017-01-16T06:25:01.749Z,0
2017-01-16T06:25:43.424Z,0
2017-01-16T06:26:24.071Z,0
2017-01-16T06:27:05.750Z,0
2017-01-16T06:27:46.406Z,0
2017-01-16T06:28:27.059Z,0
2017-01-16T06:29:07.712Z,0
2017-01-16T06:29:48.395Z,0
2017-01-16T06:30:31.062Z,0
2017-01-16T06:31:12.742Z,0
2017-01-16T06:31:54.432Z,0
2017-01-16T06:32:36.095Z,0
2017-01-16T06:33:16.753Z,0
2017-01-16T06:33:57.396Z,0
2017-01-16T06:34:38.975Z,0
2017-01-16T06:35:19.542Z,0
2017-01-16T06:36:01.204Z,0
2017-01-16T06:36:41.858Z,0
2017-01-16T06:37:22.504Z,0
2017-01-16T06:38:03.161Z,0
2017-01-16T06:38:45.775Z,0
2017-01-16T06:39:27.440Z,0
2017-01-16T06:40:08.031Z,0
2017-01-16T06:40:48.640Z,0
2017-01-16T06:41:29.293Z,0
2017-01-16T06:42:09.864Z,0
2017-01-16T06:42:50.511Z,0
2017-01-16T06:43:31.146Z,0
2017-01-16T06:44:11.800Z,0
2017-01-16T06:44:52.449Z,0
2017-01-16T06:45:33.117Z,0
2017-01-16T06:46:13.719Z,0
2017-01-16T06:46:54.371Z,0
2017-01-16T06:47:34.962Z,0
2017-01-16T06:48:15.634Z,0
2017-01-16T06:48:56.250Z,0
2017-01-16T06:49:37.904Z,0
2017-01-16T06:50:18.488Z,0
2017-01-16T06:50:59.142Z,0
2017-01-16T06:51:39.717Z,0
2017-01-16T06:52:20.312Z,0
2017-01-16T06:53:00.991Z,0
2017-01-16T06:53:41.647Z,0
2017-01-16T06:54:22.227Z,0
2017-01-16T06:55:04.894Z,0
2017-01-16T06:55:47.589Z,0
2017-01-16T06:56:29.234Z,0
2017-01-16T06:57:09.906Z,0
2017-01-16T06:57:51.594Z,0
2017-01-16T06:58:32.224Z,0
2017-01-16T06:59:13.894Z,0
2017-01-16T06:59:54.555Z,0
2017-01-16T07:00:37.155Z,0
2017-01-16T07:01:19.768Z,0
2017-01-16T07:02:01.459Z,0
2017-01-16T07:02:42.080Z,0
2017-01-16T07:03:22.767Z,0
2017-01-16T07:04:03.387Z,0
2017-01-16T07:04:46.002Z,0
2017-01-16T07:05:26.631Z,0
2017-01-16T07:06:07.284Z,0
2017-01-16T07:06:47.951Z,0
2017-01-16T07:07:28.596Z,0
2017-01-16T07:08:09.249Z,0
2017-01-16T07:08:51.855Z,0
2017-01-16T07:09:32.492Z,0
2017-01-16T07:10:13.110Z,0
2017-01-16T07:10:54.779Z,0
2017-01-16T07:11:35.349Z,0
2017-01-16T07:12:15.924Z,0
2017-01-16T07:12:56.559Z,0
2017-01-16T07:13:37.174Z,0
2017-01-16T07:14:17.753Z,0
2017-01-16T07:14:58.348Z,0
2017-01-16T07:15:38.983Z,0
2017-01-16T07:16:21.589Z,0
2017-01-16T07:17:02.225Z,0
2017-01-16T07:17:42.895Z,0
2017-01-16T07:18:23.545Z,0
2017-01-16T07:19:04.209Z,0
2017-01-16T07:19:44.842Z,0
2017-01-16T07:20:25.508Z,0
2017-01-16T07:21:07.184Z,0
2017-01-16T07:21:48.844Z,0
2017-01-16T07:22:29.535Z,0
2017-01-16T07:23:10.165Z,0
2017-01-16T07:23:52.764Z,0
2017-01-16T07:24:33.412Z,0
2017-01-16T07:25:15.042Z,4
2017-01-16T07:25:56.678Z,4
2017-01-16T07:26:37.321Z,4
2017-01-16T07:27:17.974Z,4
2017-01-16T07:28:04.271Z,4
2017-01-16T07:28:45.833Z,4
2017-01-16T07:29:31.197Z,4
2017-01-16T07:30:15.079Z,4
2017-01-16T07:30:55.719Z,4
2017-01-16T07:31:36.369Z,0
2017-01-16T07:32:18.061Z,0
2017-01-16T07:33:03.315Z,0
2017-01-16T07:33:43.964Z,0
2017-01-16T07:34:25.643Z,0
2017-01-16T07:35:06.294Z,0
2017-01-16T07:35:47.876Z,4
2017-01-16T07:36:28.525Z,4
2017-01-16T07:37:11.131Z,4
2017-01-16T07:37:57.306Z,4
2017-01-16T07:38:40.006Z,8
2017-01-16T07:39:25.368Z,4
2017-01-16T07:40:06.012Z,4
2017-01-16T07:40:46.682Z,4
2017-01-16T07:41:32.346Z,4
2017-01-16T07:42:18.828Z,4
2017-01-16T07:42:59.484Z,4
2017-01-16T07:43:42.090Z,4
2017-01-16T07:44:22.739Z,8
2017-01-16T07:45:03.304Z,8
2017-01-16T07:45:44.887Z,8
2017-01-16T07:46:25.506Z,8
2017-01-16T07:47:06.179Z,4
2017-01-16T07:47:46.743Z,4
2017-01-16T07:48:27.352Z,8
2017-01-16T07:49:07.920Z,8
2017-01-16T07:49:49.491Z,8
2017-01-16T07:50:31.077Z,8
2017-01-16T07:51:11.713Z,8
2017-01-16T07:51:53.400Z,12
2017-01-16T07:52:38.874Z,12
2017-01-16T07:53:19.527Z,12
2017-01-16T07:54:01.320Z,12
2017-01-16T07:54:41.960Z,12
2017-01-16T07:55:22.613Z,12
2017-01-16T07:56:03.264Z,12
2017-01-16T07:56:45.924Z,12
2017-01-16T07:57:28.568Z,12
2017-01-16T07:58:09.322Z,12
2017-01-16T07:58:49.974Z,8
2017-01-16T07:59:31.729Z,8
2017-01-16T08:00:12.324Z,12
2017-01-16T08:00:52.963Z,12
2017-01-16T08:01:34.627Z,12
2017-01-16T08:02:16.209Z,16
2017-01-16T08:02:56.858Z,12
2017-01-16T08:03:37.505Z,16
2017-01-16T08:04:19.192Z,16
2017-01-16T08:04:59.838Z,16
2017-01-16T08:05:45.401Z,16
2017-01-16T08:06:26.066Z,16
2017-01-16T08:07:07.754Z,20
2017-01-16T08:07:48.386Z,16
2017-01-16T08:08:33.843Z,16
2017-01-16T08:09:15.536Z,16
2017-01-16T08:09:56.098Z,20
2017-01-16T08:10:41.644Z,20
2017-01-16T08:11:22.290Z,20
2017-01-16T08:12:02.858Z,20
2017-01-16T08:12:44.530Z,24
2017-01-16T08:13:26.205Z,24
2017-01-16T08:14:06.810Z,28
2017-01-16T08:14:48.439Z,24
2017-01-16T08:15:29.074Z,24
2017-01-16T08:16:09.743Z,28
2017-01-16T08:16:50.391Z,24
2017-01-16T08:17:31.043Z,28
2017-01-16T08:18:11.698Z,28
2017-01-16T08:18:53.376Z,24
2017-01-16T08:19:34.030Z,28
2017-01-16T08:20:14.681Z,24
2017-01-16T08:20:55.332Z,28
2017-01-16T08:21:35.984Z,28
2017-01-16T08:22:16.639Z,28
2017-01-16T08:22:57.288Z,32
2017-01-16T08:23:38.965Z,32
2017-01-16T08:24:19.724Z,36
2017-01-16T08:25:00.298Z,40
2017-01-16T08:25:41.893Z,44
2017-01-16T08:26:22.498Z,40
2017-01-16T08:27:03.153Z,40
2017-01-16T08:27:43.734Z,40
2017-01-16T08:28:24.401Z,44
2017-01-16T08:29:05.113Z,48
2017-01-16T08:29:46.791Z,48
2017-01-16T08:30:27.442Z,52
2017-01-16T08:31:08.109Z,48
2017-01-16T08:31:48.751Z,48
2017-01-16T08:32:30.424Z,44
2017-01-16T08:33:12.098Z,44
2017-01-16T08:33:53.782Z,40
2017-01-16T08:34:35.454Z,40
2017-01-16T08:35:16.153Z,44
2017-01-16T08:35:58.899Z,44
2017-01-16T08:36:44.387Z,44
2017-01-16T08:37:25.059Z,48
2017-01-16T08:38:05.681Z,44
2017-01-16T08:38:46.363Z,44
2017-01-16T08:39:26.995Z,44
2017-01-16T08:40:12.352Z,44
2017-01-16T08:40:53.009Z,48
2017-01-16T08:41:34.697Z,48
2017-01-16T08:42:15.358Z,48
2017-01-16T08:42:55.913Z,48
2017-01-16T08:43:36.495Z,48
2017-01-16T08:44:18.172Z,52
2017-01-16T08:45:00.772Z,48
2017-01-16T08:45:42.504Z,48
2017-01-16T08:46:23.151Z,48
2017-01-16T08:47:03.801Z,56
2017-01-16T08:47:44.454Z,52
2017-01-16T08:48:25.203Z,56
2017-01-16T08:49:07.805Z,56
2017-01-16T08:49:48.456Z,56
2017-01-16T08:50:29.036Z,56
2017-01-16T08:51:09.663Z,56
2017-01-16T08:51:50.315Z,56
2017-01-16T08:52:30.875Z,56
2017-01-16T08:53:12.534Z,56
2017-01-16T08:53:53.188Z,60
2017-01-16T08:54:33.787Z,72
2017-01-16T08:55:14.391Z,60
2017-01-16T08:55:54.956Z,60
2017-01-16T08:56:36.591Z,64
2017-01-16T08:57:17.237Z,64
2017-01-16T08:57:57.887Z,68
2017-01-16T08:58:38.557Z,64
2017-01-16T08:59:19.180Z,68
2017-01-16T09:00:01.774Z,76
2017-01-16T09:00:42.445Z,80
2017-01-16T09:01:23.092Z,76
2017-01-16T09:02:04.793Z,80
2017-01-16T09:02:45.434Z,76
2017-01-16T09:03:26.067Z,76
2017-01-16T09:04:06.713Z,76
2017-01-16T09:04:47.410Z,72
2017-01-16T09:05:28.057Z,80
2017-01-16T09:06:08.734Z,80
2017-01-16T09:06:49.382Z,84
2017-01-16T09:07:29.937Z,84
2017-01-16T09:08:10.592Z,84
2017-01-16T09:08:51.252Z,80
2017-01-16T09:09:31.900Z,80
2017-01-16T09:10:12.566Z,76
2017-01-16T09:10:53.117Z,72
2017-01-16T09:11:33.749Z,72
2017-01-16T09:12:14.412Z,72
2017-01-16T09:12:55.070Z,76
2017-01-16T09:13:35.727Z,80
2017-01-16T09:14:16.366Z,96
2017-01-16T09:14:57.131Z,116
2017-01-16T09:15:37.775Z,184
2017-01-16T09:16:18.435Z,120
2017-01-16T09:16:59.100Z,120
2017-01-16T09:17:39.731Z,120
2017-01-16T09:18:20.385Z,128
2017-01-16T09:19:01.048Z,300
2017-01-16T09:19:41.706Z,144
2017-01-16T09:20:22.299Z,128
2017-01-16T09:21:02.965Z,164
2017-01-16T09:21:43.654Z,216
2017-01-16T09:22:24.307Z,244
2017-01-16T09:23:04.899Z,132
2017-01-16T09:23:45.511Z,136
2017-01-16T09:24:26.163Z,292
2017-01-16T09:25:06.825Z,172
2017-01-16T09:25:47.470Z,176
2017-01-16T09:26:28.121Z,192
2017-01-16T09:27:08.783Z,256
2017-01-16T09:27:49.429Z,264
2017-01-16T09:28:30.083Z,140
2017-01-16T09:29:10.736Z,216
2017-01-16T09:29:51.384Z,172
2017-01-16T09:30:31.972Z,148
2017-01-16T09:31:12.648Z,204
2017-01-16T09:31:53.232Z,156
2017-01-16T09:32:33.904Z,128
2017-01-16T09:33:14.478Z,340
2017-01-16T09:33:55.105Z,188
2017-01-16T09:34:35.762Z,3588
2017-01-16T09:35:16.341Z,3688
2017-01-16T09:35:56.966Z,3772
2017-01-16T09:36:37.617Z,3716
2017-01-16T09:37:18.183Z,3700
2017-01-16T09:37:58.806Z,3832
2017-01-16T09:38:39.474Z,3652
2017-01-16T09:39:20.045Z,3652
2017-01-16T09:40:00.691Z,3584
2017-01-16T09:40:41.327Z,3580
2017-01-16T09:41:21.881Z,3568
2017-01-16T09:42:02.487Z,3820
2017-01-16T09:42:43.083Z,3640
2017-01-16T09:43:23.734Z,3400
2017-01-16T09:44:04.310Z,3364
2017-01-16T09:44:44.957Z,3280
2017-01-16T09:45:25.587Z,3244
2017-01-16T09:46:06.269Z,3228
2017-01-16T09:46:46.896Z,3260
2017-01-16T09:47:27.555Z,3228
2017-01-16T09:48:08.197Z,3196
2017-01-16T09:48:48.857Z,3160
2017-01-16T09:49:29.508Z,3364
2017-01-16T09:50:10.165Z,3260
2017-01-16T09:50:50.818Z,3360
2017-01-16T09:51:31.383Z,3452
2017-01-16T09:52:12.025Z,3516
2017-01-16T09:52:52.668Z,3784
2017-01-16T09:53:33.217Z,3856
2017-01-16T09:54:13.876Z,3812
2017-01-16T10:32:39.830Z,4220
2017-01-16T10:33:20.480Z,4360
2017-01-16T10:34:01.133Z,4172
2017-01-16T10:34:41.669Z,3980
2017-01-16T10:35:22.330Z,3904